Aktuell sind 25 Gäste und ein Mitglied online

[source: ADDS]
METAR
EDVE 191120Z 27012KT 240V300 9999 SCT013 BKN019 OVC039 05/05 Q1009

EDDV 191120Z 27015KT 9999 FEW014 BKN018 07/04 Q1009 TEMPO 29020G35KT SHRA SCT012CB

ETHS 191120Z 29015KT 8000 -SHRA FEW008 SCT020TCU BKN040 05/03 Q1007 BLU

ETHC 191120Z 25010KT 9999 SCT010 BKN020 BKN040 05/04 Q1009 WHT

EDVK 191120Z 28019KT 9999 BKN019 05/02 Q1012

TAF
TAF EDVE 191100Z 1912/1921 27015G25KT 9999 SCT030 TEMPO 1912/1918 30015G35KT 4000 SHRA SCT008 BKN012CB PROB30 TEMPO 1912/1915 31025G45KT 2500 TSRAGS BKN008CB

TAF EDDV 191100Z 1912/2012 27015G25KT 9999 SCT030 TEMPO 1912/1918 30015G35KT 4000 SHRA SCT008 BKN012CB PROB30 TEMPO 1912/1915 31025G45KT 2500 TSRAGS BKN008CB BECMG 1922/2001 27010KT TEMPO 2007/2012 4000 -RADZ BKN012 PROB40 TEMPO 2009/2012 RADZ BKN007

TAF EDVK 191100Z 1912/1921 28015KT 9999 BKN020 TEMPO 1912/1918 29020G30KT SHRA BKN015TCU

SR / SS: 06:46 / 15:19 UTC (EDVE 2017-11-19)
Willkommen im Verein, Torben! Viel Spaß und always happy landings! +++ Der November bringt zwei neue Mitglieder! Willkommen David und Martin! Viel Spaß und Erfolg bei der Ausbildung! +++ Herzlich Willkommen im Verein Thomas! (27.10.) +++ Christian und Dennis haben ihre PPL-Prüfung bestanden! Herzlichen Glückwunsch und always happy landings!

wenig -> mittel -> viel

Professionelle Piloten arbeiten mit Checkliste
Ausdrucken und abarbeiten! Vorbereitete Links helfen bei der Beschaffung der notwendigen Informationen.

Weiterlesen ...

 Zugang zur DFS. Auf dem FFG-Account sind alle erforderlichen Daten unserer Maschinen hinterlegt. Jedes Mitglied hat hier volle Rechte! Zugangsdaten gibt es im Internen Bereich.

Hier gibt es die AIP mit allen erforderlichen Karten die im Abo der FFG liegen zum Download für unsere Mitglieder.

Letztes NOTAM EDVE
von 15.11.2017 0900Z bis 31.01.2018 2100Z
TWY H MOVING OF ACFT WITH WINGSPAN MORE THAN 10.40M BY TOWING ONLY.

Letztes NOTAM EDBC
von 09.11.2017 1717Z bis 07.02.2018 2359Z
ALL VFR AND IFR PROC TEMPO SUSPENDED. USABLE ONLY FOR FLIGHT VALIDATION.

Letztes NOTAM EDVM
von 15.11.2017 0000Z bis 15.12.2017 2359Z
CRANE ERECTED 500M NNE OF HELIPAD, ELEV 462FT / 164FT AGL, JIB 60M, DAY AND NIGHT MARKED.

Letztes NOTAM EDVI
von 18.12.2017 0000Z bis 28.02.2018 2359Z
AD PPR, REQ VIA PHONE +49(0)163-5744126 OR +49(0)5271-6999060

Letztes NOTAM EDDV
von 20.11.2017 0700Z bis 22.11.2017 1700Z
DAILY 0700-1700
OBSTACLE CLEARANCE SURFACE PENETRATED BY MOBILE CRANE. PSN 1840M BEFORE THR 27L, 90M S OF RCL. 522709N 0094417E. E [more]


Letztes NOTAM EDVK
von 27.10.2017 1109Z bis 15.12.2017 2200Z
VDF OUT OF SERVICE.

Letztes NOTAM ETHS
von 21.11.2017 0700Z bis 23.11.2017 1600Z
DAILY 0700-1600
UAV TRAFFIC WITHIN CTR ETHS. EXPECT DLA DURING DEP/ARR PHASE OF THE UAV.

EDCB.png          aerodata150     Radio38